Latchford, Canada
Current Conditions -  °F | °C
As of 1:00 AM on Thursday 23 Oct 2014 (Local Time) from CYXR Reporting Station
Clear Clear  
Wind Chill: 23°   Ceiling: Unl
Heat Index: 28°   Visibility: 9mi
Dew Point: 27°   Wind: 5mph
Humidity: 93%   Direction: 320°NW
Pressure: 30.3"   Gusts: NA
Location:  47.33°N, 79.8°W
Report Text: CYXR 230500Z AUTO 32004KT 9SM CLR M02/M03 A3030 RMK SLP273
Loading
Personal Weather Stations






























Interactive Weather Map
Tropical Storm Tracking
New forecast layout! Learn more

10-Day Weather Forecast

Advertisements
Track Severe Weather on mobile